Flight Track Log - Related Links

Times and Time Zones

All times are in EDT time to prevent confusion due to time zone crossing. See the GJS3710 flight status page for this flight to view local times or setup timezone preferences in your user account.

Time Position Orientation Groundspeed Altitude Reporting Facility
EDT Latitude Longitude Course Direction KTS MPH feet Rate Location/Type
Sat 01:08:36 PM 30.1889 -97.7597 291° West 234 269 6,100  Level Houston Center
Sat 01:09:37 PM 30.2364 -97.8261 310° West 256 295 9,400 2,732 Climbing Houston Center
Sat 01:10:00 PM 30.4294 -97.7047 291° West  Level FlightAware Approximate
Sat 01:10:39 PM 30.2833 -97.9067 304° West 278 320 11,700  Level Houston Center
Sat 01:11:00 PM 30.4686 -97.8135 293° West  Level FlightAware Approximate
Sat 01:11:41 PM 30.3314 -97.9886 304° West 312 359 14,400  Level Houston Center
Sat 01:12:00 PM 30.5095 -97.9283 291° West  Level FlightAware Approximate
Sat 01:12:43 PM 30.3828 -98.0767 304° West 324 373 17,000  Level Houston Center
Sat 01:13:00 PM 30.5482 -98.0442 291° West  Level FlightAware Approximate
Sat 01:13:45 PM 30.4364 -98.1664 305° West 331 381 19,400  Level Houston Center
Sat 01:14:00 PM 30.5868 -98.1601 291° West  Level FlightAware Approximate
Sat 01:14:47 PM 30.4903 -98.2592 304° West 339 390 21,700  Level Houston Center
Sat 01:15:49 PM 30.5550 -98.3681 305° West 346 398 24,300 2,177 Climbing Houston Center
Sat 01:16:51 PM 30.6108 -98.4611 305° West 347 399 26,200 1,500 Climbing Houston Center
Sat 01:17:53 PM 30.7008 -98.5256 328° Northwest 372 428 27,400 1,161 Climbing Houston Center
Sat 01:18:55 PM 30.7928 -98.5936 328° Northwest 383 441 28,600 1,210 Climbing Houston Center
Sat 01:19:57 PM 30.8878 -98.6625 328° Northwest 394 453 29,900 1,210 Climbing Houston Center
Sat 01:20:59 PM 30.9844 -98.7339 328° Northwest 403 464 31,100 1,161 Climbing Houston Center
Sat 01:22:01 PM 31.0800 -98.8044 328° Northwest 404 465 32,300 1,161 Climbing Houston Center
Sat 01:23:03 PM 31.1767 -98.8758 328° Northwest 405 466 33,500 1,210 Climbing Houston Center
Sat 01:24:05 PM 31.2731 -98.9478 327° Northwest 405 466 34,800 1,306 Climbing Houston Center
Sat 01:25:07 PM 31.3847 -99.0308 328° Northwest 403 464 36,200 1,258 Climbing Houston Center
Sat 01:26:09 PM 31.4783 -99.1014 327° Northwest 396 456 37,400 1,190 Climbing Houston Center
Sat 01:27:03 PM 31.5603 -99.1639 327° Northwest 392 451 38,500 1,211 Climbing Fort Worth Center
Sat 01:28:03 PM 31.6489 -99.2289 328° Northwest 392 451 39,700 750 Climbing Fort Worth Center
Sat 01:29:03 PM 31.7336 -99.2942 327° Northwest 386 444 40,000 150 Climbing Fort Worth Center
Sat 01:30:03 PM 31.8183 -99.3569 328° Northwest 368 423 40,000  Level Fort Worth Center
Sat 01:31:03 PM 31.9069 -99.4225 328° Northwest 368 423 40,000  Level Fort Worth Center
Sat 01:32:03 PM 31.9894 -99.4881 326° Northwest 368 423 40,000  Level Fort Worth Center
Sat 01:33:03 PM 32.0781 -99.5561 327° Northwest 368 423 40,000  Level Fort Worth Center
Sat 01:34:03 PM 32.1647 -99.6197 328° Northwest 368 423 40,000  Level Fort Worth Center
Sat 01:35:03 PM 32.2511 -99.6881 326° Northwest 368 423 40,000  Level Fort Worth Center
Sat 01:36:03 PM 32.3397 -99.7542 328° Northwest 368 423 40,000  Level Fort Worth Center
Sat 01:37:03 PM 32.4261 -99.8206 327° Northwest 368 423 40,000  Level Fort Worth Center
Sat 01:38:03 PM 32.5125 -99.8869 327° Northwest 368 423 40,000  Level Fort Worth Center
Sat 01:39:03 PM 32.6011 -99.9483 330° Northwest 368 423 40,000  Level Fort Worth Center
Sat 01:40:03 PM 32.7042 -100.0056 335° Northwest 378 435 40,000  Level Fort Worth Center
Sat 01:41:03 PM 32.7886 -100.0650 329° Northwest 389 448 40,000  Level Fort Worth Center
Sat 01:42:03 PM 32.8792 -100.1197 333° Northwest 384 442 40,000  Level Fort Worth Center
Sat 01:43:03 PM 32.9719 -100.1794 332° Northwest 384 442 40,000  Level Fort Worth Center
Sat 01:44:03 PM 33.0664 -100.2417 331° Northwest 384 442 40,000  Level Fort Worth Center
Sat 01:45:03 PM 33.1592 -100.3017 332° Northwest 384 442 40,000  Level Fort Worth Center
Sat 01:46:03 PM 33.2536 -100.3644 331° Northwest 384 442 40,000  Level Fort Worth Center
Sat 01:47:03 PM 33.3461 -100.4247 331° Northwest 384 442 40,000  Level Fort Worth Center
Sat 01:48:03 PM 33.4428 -100.4878 331° Northwest 384 442 40,000  Level Fort Worth Center
Sat 01:49:03 PM 33.5372 -100.5508 331° Northwest 384 442 40,000  Level Fort Worth Center
Sat 01:50:03 PM 33.6317 -100.6117 332° Northwest 384 442 40,000  Level Fort Worth Center
Sat 01:51:03 PM 33.7319 -100.6828 329° Northwest 384 442 40,000  Level Fort Worth Center
Sat 01:52:03 PM 33.8286 -100.7414 333° Northwest 384 442 40,000  Level Fort Worth Center
Sat 01:53:03 PM 33.9250 -100.8050 331° Northwest 389 448 40,000  Level Fort Worth Center
Sat 01:54:03 PM 34.0150 -100.8689 330° Northwest 389 448 40,000  Level Fort Worth Center
Sat 01:55:03 PM 34.1114 -100.9303 332° Northwest 389 448 40,000  Level Fort Worth Center
Sat 01:57:20 PM 34.3211 -101.0700 331° Northwest 389 448 40,000  Level Albuquerque Center
Sat 01:58:22 PM 34.4142 -101.1347 330° Northwest 387 445 40,000  Level Albuquerque Center
Sat 01:59:24 PM 34.5086 -101.1969 332° Northwest 388 447 40,000  Level Albuquerque Center
Sat 02:00:26 PM 34.6031 -101.2608 331° Northwest 387 445 40,000  Level Albuquerque Center
Sat 02:01:27 PM 34.7156 -101.3389 330° Northwest 388 447 40,000  Level Albuquerque Center
Sat 02:02:29 PM 34.8086 -101.4042 330° Northwest 386 444 40,000  Level Albuquerque Center
Sat 02:03:31 PM 34.9031 -101.4681 331° Northwest 389 448 40,000  Level Albuquerque Center
Sat 02:04:33 PM 35.0017 -101.5353 331° Northwest 389 448 40,000  Level Albuquerque Center
Sat 02:05:35 PM 35.0975 -101.6000 331° Northwest 391 450 40,000  Level Albuquerque Center
Sat 02:06:36 PM 35.1906 -101.6647 330° Northwest 386 444 40,000  Level Albuquerque Center
Sat 02:07:38 PM 35.2867 -101.7233 334° Northwest 385 443 40,000  Level Albuquerque Center
Sat 02:08:40 PM 35.3928 -101.7697 340° North 394 453 40,000  Level Albuquerque Center
Sat 02:09:42 PM 35.4944 -101.8169 339° North 391 450 40,000  Level Albuquerque Center
Sat 02:10:43 PM 35.5972 -101.8642 340° North 392 451 40,000  Level Albuquerque Center
Sat 02:11:45 PM 35.7217 -101.9211 340° North 395 455 40,000  Level Albuquerque Center
Sat 02:12:47 PM 35.8242 -101.9694 339° North 395 455 40,000  Level Albuquerque Center
Sat 02:13:48 PM 35.9264 -102.0175 339° North 393 452 40,000  Level Albuquerque Center
Sat 02:14:50 PM 36.0275 -102.0656 339° North 392 451 40,000  Level Albuquerque Center
Sat 02:15:52 PM 36.1300 -102.1119 340° North 392 451 40,000  Level Albuquerque Center
Sat 02:16:53 PM 36.2314 -102.1600 339° North 390 449 40,000  Level Albuquerque Center
Sat 02:17:55 PM 36.3319 -102.2083 339° North 389 448 40,000 -48 Level Albuquerque Center
Sat 02:18:57 PM 36.4539 -102.2661 339° North 390 449 39,900 -585 Descending Albuquerque Center
Sat 02:19:58 PM 36.5550 -102.3136 339° North 389 448 38,800 -1,024 Descending Albuquerque Center
Sat 02:21:00 PM 36.6550 -102.3619 339° North 387 445 37,800 -968 Descending Albuquerque Center
Sat 02:22:02 PM 36.7533 -102.4075 340° North 381 438 36,800 -878 Descending Albuquerque Center
Sat 02:23:03 PM 36.8506 -102.4539 339° North 376 433 36,000 -390 Descending Albuquerque Center
Sat 02:24:05 PM 36.9589 -102.5081 338° Northwest 382 440 36,000  Level Albuquerque Center
Sat 02:25:07 PM 37.0614 -102.5556 340° North 388 447 36,000  Level Albuquerque Center
Sat 02:26:08 PM 37.1575 -102.6031 339° North 388 447 36,000  Level Albuquerque Center
Sat 02:27:10 PM 37.2692 -102.6575 339° North 388 447 36,000  Level Albuquerque Center
Sat 02:28:12 PM 37.3650 -102.7036 339° North 385 443 36,000  Level Albuquerque Center
Sat 02:29:13 PM 37.4769 -102.7583 339° North 386 444 36,000  Level Albuquerque Center
Sat 02:30:15 PM 37.5744 -102.7969 343° North 384 442 36,000  Level Albuquerque Center
Sat 02:31:16 PM 37.6847 -102.8525 338° Northwest 386 444 36,000  Level Albuquerque Center
Sat 02:32:18 PM 37.7692 -102.9189 328° Northwest 376 433 36,000  Level Albuquerque Center
Sat 02:33:32 PM 37.8836 -103.0075 329° Northwest 376 433 36,000  Level Denver Center
Sat 02:34:34 PM 37.9694 -103.0742 329° Northwest 378 435 36,000  Level Denver Center
Sat 02:35:35 PM 38.0692 -103.1536 328° Northwest 379 436 36,000  Level Denver Center
Sat 02:36:36 PM 38.1408 -103.2111 328° Northwest 382 440 36,000  Level Denver Center
Sat 02:37:38 PM 38.2414 -103.2922 328° Northwest 384 442 36,000 -387 Level Denver Center
Sat 02:38:40 PM 38.3425 -103.3728 328° Northwest 387 445 35,200 -927 Descending Denver Center
Sat 02:39:41 PM 38.4303 -103.4419 328° Northwest 388 447 34,100 -585 Descending Denver Center
Sat 02:40:43 PM 38.5289 -103.5225 327° Northwest 378 435 34,000 -244 Descending Denver Center
Sat 02:41:44 PM 38.6156 -103.5933 327° Northwest 383 441 33,600 -1,122 Descending Denver Center
Sat 02:42:46 PM 38.7181 -103.6767 328° Northwest 389 448 31,700 -1,659 Descending Denver Center
Sat 02:43:47 PM 38.8044 -103.7489 327° Northwest 388 447 30,200 -1,512 Descending Denver Center
Sat 02:44:49 PM 38.8956 -103.8211 328° Northwest 387 445 28,600 -1,561 Descending Denver Center
Sat 02:45:50 PM 38.9839 -103.8956 327° Northwest 379 436 27,000 -1,561 Descending Denver Center
Sat 02:46:52 PM 39.0717 -103.9667 328° Northwest 371 427 25,400 -1,512 Descending Denver Center
Sat 02:47:53 PM 39.1583 -104.0383 327° Northwest 368 423 23,900 -1,770 Descending Denver Center
Sat 02:48:54 PM 39.2503 -104.1169 326° Northwest 365 420 21,800 -1,902 Descending Denver Center
Sat 02:49:56 PM 39.3258 -104.1800 327° Northwest 322 371 20,000 -1,756 Descending Denver Center
Sat 02:50:57 PM 39.4078 -104.2464 328° Northwest 325 374 18,200 -1,659 Descending Denver Center
Sat 02:51:59 PM 39.4842 -104.3086 328° Northwest 326 375 16,600 -1,306 Descending Denver Center
Sat 02:53:01 PM 39.5553 -104.3656 328° Northwest 304 350 15,500 -976 Descending Denver Center
Sat 02:54:02 PM 39.6322 -104.4292 328° Northwest 302 348 14,600 -836 Descending Denver Center
Sat 02:55:03 PM 39.7025 -104.4850 329° Northwest 297 342 13,800 -878 Descending Denver Center
Sat 02:56:05 PM 39.7775 -104.5228 339° North 288 331 12,800 -1,220 Descending Denver Center
Sat 02:57:06 PM 39.8675 -104.5211 North 299 344 11,300 -1,301 Descending Denver Center
Sat 02:57:28 PM 39.9000 -104.5167 North 280 322 11,000 -474 Descending Denver TRACON
Sat 02:58:22 PM 39.9500 -104.5333 346° North 227 261 10,700 -1,105 Descending Denver TRACON
Sat 02:59:22 PM 39.9833 -104.5833 311° West 224 258 8,900 -1,817 Descending Denver TRACON
Sat 03:00:11 PM 39.9919 -104.6508 279° West 227 261 7,400 -1,837 Descending Denver Center

Login

Don't have an account? Register now (free) for customized features, flight alerts, and more!